Time;durP1;ratioP1;P1;durP2;ratioP2;P2;SDS_P1;SDS_P2;PMS_P1;PMS_P2;Temp;Humidity;BMP_temperature;BMP_pressure;BME280_temperature;BME280_humidity;BME280_pressure;Samples;Min_cycle;Max_cycle;Signal;HPM_P1;HPM_P2
2023/05/12 00:01:41;;;;;;;8.55;6.53;;;12.10;99.90;;;;;;5025595;28;20036;-90
2023/05/12 00:04:07;;;;;;;8.38;5.95;;;12.10;99.90;;;;;;5028189;28;20071;-89
2023/05/12 00:06:33;;;;;;;7.35;4.47;;;12.00;99.90;;;;;;5029012;28;20041;-90
2023/05/12 00:08:58;;;;;;;9.75;6.80;;;12.10;99.90;;;;;;5024955;28;20492;-89
2023/05/12 00:11:24;;;;;;;7.28;5.35;;;12.00;99.90;;;;;;5034092;28;20041;-89
2023/05/12 00:13:50;;;;;;;9.27;6.60;;;12.00;99.90;;;;;;5009927;28;20044;-89
2023/05/12 00:16:17;;;;;;;11.07;8.52;;;11.90;99.90;;;;;;5046181;28;20102;-90
2023/05/12 00:18:44;;;;;;;9.82;6.82;;;11.90;99.90;;;;;;5031082;28;20036;-90
2023/05/12 00:21:11;;;;;;;8.57;6.70;;;11.90;99.90;;;;;;5011440;28;20030;-90
2023/05/12 00:23:37;;;;;;;7.55;5.28;;;11.80;99.90;;;;;;5029875;28;20104;-88
2023/05/12 00:26:03;;;;;;;8.02;5.97;;;11.90;99.90;;;;;;5030136;28;20060;-90
2023/05/12 00:28:29;;;;;;;9.20;6.00;;;11.90;99.90;;;;;;5029741;28;20025;-89
2023/05/12 00:30:55;;;;;;;8.48;6.32;;;11.80;99.90;;;;;;5029350;28;20029;-89
2023/05/12 00:33:21;;;;;;;8.23;5.25;;;11.70;99.90;;;;;;5027412;28;20553;-88
2023/05/12 00:35:47;;;;;;;7.82;5.45;;;11.70;99.90;;;;;;5024632;28;20124;-89
2023/05/12 00:38:12;;;;;;;8.23;5.55;;;11.60;99.90;;;;;;5010609;28;20025;-89
2023/05/12 00:40:39;;;;;;;7.57;5.63;;;11.60;99.90;;;;;;5029498;28;20057;-88
2023/05/12 00:43:05;;;;;;;6.07;4.07;;;11.60;99.90;;;;;;5010868;28;20036;-88
2023/05/12 00:45:30;;;;;;;5.90;4.57;;;11.60;99.90;;;;;;5046235;28;20037;-89
2023/05/12 00:47:57;;;;;;;5.70;4.15;;;11.60;99.90;;;;;;5028215;28;20025;-89
2023/05/12 00:50:23;;;;;;;5.78;4.40;;;11.60;99.90;;;;;;5028553;28;20056;-87
2023/05/12 00:52:49;;;;;;;5.13;3.08;;;11.50;99.90;;;;;;5026482;28;20059;-89
2023/05/12 00:55:15;;;;;;;5.07;2.97;;;11.60;99.90;;;;;;5011718;28;20037;-88
2023/05/12 00:57:41;;;;;;;4.55;3.05;;;11.60;99.90;;;;;;5027369;28;20355;-89
2023/05/12 01:00:08;;;;;;;7.25;5.38;;;11.60;99.90;;;;;;5026178;28;20136;-90
2023/05/12 01:02:35;;;;;;;6.95;4.85;;;11.60;99.90;;;;;;5026927;28;20550;-89
2023/05/12 01:05:02;;;;;;;6.45;4.35;;;11.50;99.90;;;;;;5026647;28;20038;-88
2023/05/12 01:07:31;;;;;;;6.15;4.45;;;11.60;99.90;;;;;;5022353;28;20040;-88
2023/05/12 01:09:58;;;;;;;5.15;4.15;;;11.50;99.90;;;;;;5027289;28;20093;-89
2023/05/12 01:12:26;;;;;;;3.80;2.17;;;11.60;99.90;;;;;;5027841;28;20026;-89
2023/05/12 01:14:53;;;;;;;4.35;3.08;;;11.60;99.90;;;;;;5030174;28;20195;-89
2023/05/12 01:17:24;;;;;;;6.78;3.55;;;11.60;99.90;;;;;;5008342;28;20025;-88
2023/05/12 01:19:57;;;;;;;4.78;3.03;;;11.60;99.90;;;;;;5010497;28;20032;-89
2023/05/12 01:22:24;;;;;;;4.10;2.45;;;11.60;99.90;;;;;;5010791;28;20412;-88
2023/05/12 01:25:00;;;;;;;4.75;3.50;;;11.60;99.90;;;;;;5010517;28;20032;-89
2023/05/12 01:27:28;;;;;;;4.40;2.97;;;11.60;99.90;;;;;;5057937;28;20029;-89
2023/05/12 01:29:58;;;;;;;3.80;2.92;;;11.60;99.90;;;;;;5012726;28;20021;-89
2023/05/12 01:32:25;;;;;;;5.45;3.33;;;11.60;99.90;;;;;;5011439;28;20031;-90
2023/05/12 01:34:51;;;;;;;3.65;2.90;;;11.60;99.90;;;;;;5025209;28;20132;-89
2023/05/12 01:37:18;;;;;;;4.25;3.63;;;11.60;99.90;;;;;;5013774;28;20071;-90
2023/05/12 01:39:44;;;;;;;4.72;2.72;;;11.60;99.90;;;;;;5027327;28;20017;-91
2023/05/12 01:42:15;;;;;;;4.35;2.78;;;11.60;99.90;;;;;;5013877;28;20059;-89
2023/05/12 01:44:41;;;;;;;7.05;3.13;;;11.60;99.90;;;;;;5025175;28;20456;-88
2023/05/12 01:47:08;;;;;;;5.90;3.58;;;11.60;99.90;;;;;;5013764;28;20037;-89
2023/05/12 01:49:36;;;;;;;6.35;3.92;;;11.60;99.90;;;;;;5011978;28;20437;-90
2023/05/12 01:52:03;;;;;;;6.93;3.72;;;11.60;99.90;;;;;;5015339;28;20037;-89
2023/05/12 01:54:30;;;;;;;5.28;3.67;;;11.60;99.90;;;;;;5031854;28;20470;-90
2023/05/12 01:56:56;;;;;;;5.75;3.75;;;11.60;99.90;;;;;;5032044;28;20025;-92
2023/05/12 01:59:22;;;;;;;6.30;3.80;;;11.60;99.90;;;;;;5033424;28;20030;-90
2023/05/12 02:01:48;;;;;;;7.45;4.82;;;11.60;99.90;;;;;;5030423;28;20028;-90
2023/05/12 02:04:19;;;;;;;9.68;5.40;;;11.60;99.90;;;;;;5025398;28;20481;-91
2023/05/12 02:06:46;;;;;;;7.95;5.28;;;11.60;99.90;;;;;;5030883;28;20171;-90
2023/05/12 02:09:12;;;;;;;7.55;4.32;;;11.70;99.90;;;;;;5012488;28;20067;-90
2023/05/12 02:11:40;;;;;;;11.60;6.65;;;11.60;99.90;;;;;;5033737;28;20021;-91
2023/05/12 02:14:06;;;;;;;10.15;5.55;;;11.60;99.90;;;;;;5013063;28;20060;-90
2023/05/12 02:16:32;;;;;;;10.70;6.35;;;11.70;99.90;;;;;;5030160;28;20029;-91
2023/05/12 02:18:57;;;;;;;10.30;5.68;;;11.70;99.90;;;;;;5030721;28;20033;-90
2023/05/12 02:21:23;;;;;;;10.30;6.47;;;11.70;99.90;;;;;;5034608;28;20032;-91
2023/05/12 02:23:51;;;;;;;13.13;7.68;;;11.70;99.90;;;;;;5012235;28;20017;-90
2023/05/12 02:26:20;;;;;;;9.20;6.20;;;11.70;99.90;;;;;;5031798;28;20394;-90
2023/05/12 02:28:46;;;;;;;10.75;6.75;;;11.70;99.90;;;;;;5029804;28;20021;-90
2023/05/12 02:31:11;;;;;;;8.65;5.03;;;11.80;99.90;;;;;;5013766;28;20033;-90
2023/05/12 02:33:37;;;;;;;10.32;6.03;;;11.80;99.90;;;;;;5013604;28;20393;-90
2023/05/12 02:36:04;;;;;;;17.13;9.35;;;11.80;99.90;;;;;;5029834;28;20071;-90
2023/05/12 02:38:29;;;;;;;18.00;10.30;;;11.80;99.90;;;;;;5028290;28;20053;-91
2023/05/12 02:40:55;;;;;;;15.75;8.18;;;11.80;99.90;;;;;;5029990;28;20188;-89
2023/05/12 02:43:21;;;;;;;14.23;7.53;;;11.90;99.90;;;;;;5012408;28;20125;-90
2023/05/12 02:45:47;;;;;;;15.65;7.60;;;11.90;99.90;;;;;;5030088;28;20104;-90
2023/05/12 02:48:13;;;;;;;15.38;8.50;;;11.90;99.90;;;;;;5029873;28;20446;-89
2023/05/12 02:50:39;;;;;;;22.23;13.02;;;11.90;99.90;;;;;;5032838;28;20029;-89
2023/05/12 02:53:04;;;;;;;19.17;12.13;;;11.90;99.90;;;;;;5016523;28;20064;-91
2023/05/12 02:55:30;;;;;;;17.92;10.70;;;11.90;99.90;;;;;;5015171;28;20040;-88
2023/05/12 02:57:56;;;;;;;19.80;11.55;;;11.90;99.90;;;;;;5014045;28;20025;-91
2023/05/12 03:00:22;;;;;;;18.15;11.35;;;12.00;99.90;;;;;;5011603;28;20033;-90
2023/05/12 03:02:47;;;;;;;17.90;10.30;;;12.00;99.90;;;;;;5012765;28;20060;-90
2023/05/12 03:05:13;;;;;;;16.52;9.68;;;12.00;99.90;;;;;;5016747;28;20037;-87
2023/05/12 03:07:39;;;;;;;20.60;12.18;;;12.00;99.90;;;;;;5031176;28;20036;-88
2023/05/12 03:10:05;;;;;;;19.27;10.93;;;12.00;99.90;;;;;;5015533;28;20482;-88
2023/05/12 03:12:34;;;;;;;17.50;9.93;;;12.00;99.90;;;;;;5012528;28;20371;-87
2023/05/12 03:14:59;;;;;;;26.20;15.18;;;12.00;99.90;;;;;;5029463;28;20044;-88
2023/05/12 03:17:25;;;;;;;22.85;13.52;;;12.00;99.90;;;;;;5030636;28;20025;-87
2023/05/12 03:19:51;;;;;;;26.45;13.38;;;12.10;99.90;;;;;;5015564;28;20027;-87
2023/05/12 03:22:17;;;;;;;23.65;14.15;;;12.10;99.90;;;;;;5016344;28;20036;-87
2023/05/12 03:24:42;;;;;;;22.23;13.00;;;12.10;99.90;;;;;;5015782;28;20032;-87
2023/05/12 03:27:08;;;;;;;23.50;13.40;;;12.10;99.90;;;;;;5014272;28;20037;-87
2023/05/12 03:29:34;;;;;;;25.63;15.35;;;12.10;99.90;;;;;;5016018;28;20059;-87
2023/05/12 03:31:59;;;;;;;25.70;16.30;;;12.20;99.90;;;;;;5015682;28;20029;-86
2023/05/12 03:34:25;;;;;;;27.02;15.07;;;12.20;99.90;;;;;;5012597;28;20496;-87
2023/05/12 03:36:51;;;;;;;22.38;13.50;;;12.20;99.90;;;;;;5016537;28;20284;-88
2023/05/12 03:39:16;;;;;;;18.75;11.95;;;12.20;99.90;;;;;;5028561;28;20032;-88
2023/05/12 03:41:42;;;;;;;18.88;11.25;;;12.20;99.90;;;;;;5010931;28;20112;-89
2023/05/12 03:44:08;;;;;;;21.42;13.30;;;12.20;99.90;;;;;;5027838;28;20055;-88
2023/05/12 03:46:34;;;;;;;24.08;14.32;;;12.20;99.90;;;;;;5028470;28;20069;-88
2023/05/12 03:49:00;;;;;;;21.13;12.25;;;12.20;99.90;;;;;;5016447;28;20036;-88
2023/05/12 03:51:29;;;;;;;20.77;13.55;;;12.20;99.90;;;;;;5012336;28;20025;-88
2023/05/12 03:53:55;;;;;;;17.58;11.25;;;12.20;99.90;;;;;;5032481;28;20057;-89
2023/05/12 03:56:21;;;;;;;17.52;11.48;;;12.30;99.90;;;;;;5013941;28;20064;-88
2023/05/12 03:58:47;;;;;;;18.63;11.30;;;12.30;99.90;;;;;;5010698;28;20063;-88
2023/05/12 04:01:14;;;;;;;17.25;10.48;;;12.30;99.90;;;;;;5009946;28;20029;-88
2023/05/12 04:03:40;;;;;;;21.60;14.35;;;12.30;99.90;;;;;;5015311;28;20028;-88
2023/05/12 04:06:07;;;;;;;23.42;13.77;;;12.30;99.90;;;;;;5012695;28;20090;-88
2023/05/12 04:08:34;;;;;;;20.10;14.27;;;12.30;99.90;;;;;;5028407;28;20076;-88
2023/05/12 04:11:02;;;;;;;20.92;13.27;;;12.40;99.90;;;;;;5009552;28;20060;-88
2023/05/12 04:13:30;;;;;;;19.73;12.38;;;12.40;99.90;;;;;;5010005;28;20288;-88
2023/05/12 04:15:57;;;;;;;21.15;13.70;;;12.40;99.90;;;;;;5031193;28;20047;-87
2023/05/12 04:18:24;;;;;;;20.33;12.45;;;12.40;99.90;;;;;;5028133;28;20029;-88
2023/05/12 04:20:50;;;;;;;20.15;12.45;;;12.40;99.90;;;;;;5011018;28;20033;-88
2023/05/12 04:23:16;;;;;;;20.45;12.50;;;12.40;99.90;;;;;;5013884;28;20021;-87
2023/05/12 04:25:42;;;;;;;17.92;11.00;;;12.40;99.90;;;;;;5025771;28;20509;-87
2023/05/12 04:28:09;;;;;;;18.42;11.48;;;12.50;99.90;;;;;;5028472;28;20035;-88
2023/05/12 04:30:36;;;;;;;19.48;12.73;;;12.50;99.90;;;;;;5027683;28;20037;-87
2023/05/12 04:33:01;;;;;;;27.88;17.17;;;12.60;99.90;;;;;;5011079;28;20434;-87
2023/05/12 04:35:27;;;;;;;25.65;17.38;;;12.60;99.90;;;;;;5031079;28;20079;-86
2023/05/12 04:37:53;;;;;;;21.45;14.25;;;12.60;99.90;;;;;;5008474;28;20032;-88
2023/05/12 04:40:19;;;;;;;24.92;17.13;;;12.60;99.90;;;;;;5015317;28;20381;-88
2023/05/12 04:42:45;;;;;;;20.83;13.65;;;12.70;99.90;;;;;;5014198;28;20033;-87
2023/05/12 04:45:12;;;;;;;23.05;14.50;;;12.70;99.90;;;;;;5013021;28;20033;-88
2023/05/12 04:47:37;;;;;;;23.30;15.70;;;12.70;99.90;;;;;;5011454;28;20392;-87
2023/05/12 04:50:04;;;;;;;25.38;16.25;;;12.70;99.90;;;;;;5014879;28;20456;-88
2023/05/12 04:52:30;;;;;;;20.92;14.02;;;12.70;99.90;;;;;;5028231;28;20079;-87
2023/05/12 04:54:56;;;;;;;21.02;13.68;;;12.80;99.90;;;;;;5010997;28;20021;-88
2023/05/12 04:57:22;;;;;;;18.63;12.82;;;12.80;99.90;;;;;;5042880;28;20075;-88
2023/05/12 04:59:48;;;;;;;18.85;13.10;;;12.80;99.90;;;;;;5014944;28;20086;-87
2023/05/12 05:02:14;;;;;;;17.98;13.00;;;12.80;99.90;;;;;;5038517;28;20429;-86
2023/05/12 05:04:40;;;;;;;18.50;12.20;;;12.80;99.90;;;;;;5009737;28;20072;-87
2023/05/12 05:07:07;;;;;;;19.70;13.35;;;12.90;99.90;;;;;;5009655;28;20056;-87
2023/05/12 05:09:33;;;;;;;15.98;11.23;;;12.90;99.90;;;;;;5009378;28;20486;-87
2023/05/12 05:11:58;;;;;;;16.17;10.75;;;13.00;99.90;;;;;;5011266;28;20030;-88
2023/05/12 05:14:24;;;;;;;19.83;12.73;;;13.00;99.90;;;;;;5013697;28;20048;-87
2023/05/12 05:16:51;;;;;;;18.52;13.05;;;13.10;99.90;;;;;;5011875;28;20021;-87
2023/05/12 05:19:17;;;;;;;16.88;11.77;;;13.10;99.90;;;;;;5011159;28;20028;-88
2023/05/12 05:21:43;;;;;;;19.83;13.85;;;13.20;99.90;;;;;;5008731;28;20049;-88
2023/05/12 05:24:08;;;;;;;21.85;13.93;;;13.20;99.90;;;;;;5016967;28;20029;-88
2023/05/12 05:26:34;;;;;;;17.70;13.23;;;13.20;99.90;;;;;;5015431;28;20043;-87
2023/05/12 05:29:01;;;;;;;23.13;15.13;;;13.30;99.90;;;;;;5018235;28;20389;-85
2023/05/12 05:31:27;;;;;;;19.88;14.05;;;13.40;99.90;;;;;;5014613;28;20079;-88
2023/05/12 05:33:54;;;;;;;17.05;12.70;;;13.40;99.90;;;;;;5024465;28;20542;-86
2023/05/12 05:36:26;;;;;;;16.58;11.73;;;13.40;99.90;;;;;;5047302;28;20028;-84
2023/05/12 05:38:52;;;;;;;14.55;10.88;;;13.40;99.90;;;;;;5033961;28;20071;-85
2023/05/12 05:41:22;;;;;;;15.48;11.05;;;13.50;99.90;;;;;;5031730;28;20113;-87
2023/05/12 05:43:48;;;;;;;16.27;11.13;;;13.50;99.90;;;;;;5031499;28;20044;-86
2023/05/12 05:46:14;;;;;;;16.13;11.88;;;13.50;99.90;;;;;;5033900;28;20025;-86
2023/05/12 05:48:40;;;;;;;17.98;11.90;;;13.50;99.90;;;;;;5032431;28;20025;-84
2023/05/12 05:51:10;;;;;;;15.93;10.90;;;13.50;99.90;;;;;;5017036;28;20473;-86
2023/05/12 05:53:36;;;;;;;15.75;11.98;;;13.50;99.90;;;;;;5029456;28;20017;-85
2023/05/12 05:56:02;;;;;;;15.93;12.02;;;13.50;99.90;;;;;;5015197;28;20504;-83
2023/05/12 05:58:29;;;;;;;16.13;11.55;;;13.60;99.90;;;;;;5039237;28;20029;-86
2023/05/12 06:00:54;;;;;;;17.23;11.85;;;13.60;99.90;;;;;;5032590;28;20076;-87
2023/05/12 06:03:22;;;;;;;17.83;12.55;;;13.60;99.90;;;;;;5017660;28;20025;-86
2023/05/12 06:05:48;;;;;;;19.13;14.18;;;13.60;99.90;;;;;;5045261;28;20026;-86
2023/05/12 06:08:14;;;;;;;19.98;14.60;;;13.60;99.90;;;;;;5032994;28;20051;-86
2023/05/12 06:10:40;;;;;;;18.30;13.75;;;13.60;99.90;;;;;;5011568;28;20037;-85
2023/05/12 06:13:06;;;;;;;22.08;14.43;;;13.70;99.90;;;;;;5029565;28;20043;-85
2023/05/12 06:15:32;;;;;;;19.83;13.95;;;13.70;99.90;;;;;;5015183;28;20029;-86
2023/05/12 06:17:57;;;;;;;18.67;13.02;;;13.80;99.90;;;;;;5047765;28;20189;-87
2023/05/12 06:20:24;;;;;;;18.00;13.40;;;13.80;99.90;;;;;;5040225;28;20137;-85
2023/05/12 06:22:49;;;;;;;17.02;13.20;;;13.80;99.90;;;;;;5048555;28;20021;-86
2023/05/12 06:25:16;;;;;;;17.80;12.10;;;13.90;99.90;;;;;;5012686;28;20032;-85
2023/05/12 06:27:42;;;;;;;14.55;11.18;;;13.90;99.90;;;;;;5028956;28;20024;-86
2023/05/12 06:30:08;;;;;;;16.98;11.18;;;14.00;99.90;;;;;;5045996;28;20111;-87
2023/05/12 06:32:35;;;;;;;14.73;10.40;;;14.10;99.90;;;;;;5026486;28;20160;-86
2023/05/12 06:35:00;;;;;;;17.50;13.20;;;14.20;99.90;;;;;;5015246;28;20445;-87
2023/05/12 06:37:26;;;;;;;13.40;10.15;;;14.30;99.90;;;;;;5014495;28;20025;-87
2023/05/12 06:39:52;;;;;;;15.27;11.25;;;14.50;99.90;;;;;;5045793;28;20341;-85
2023/05/12 06:42:17;;;;;;;15.00;11.77;;;14.50;99.90;;;;;;5015348;28;20492;-87
2023/05/12 06:44:49;;;;;;;13.80;10.35;;;14.60;99.90;;;;;;5012982;28;20112;-85
2023/05/12 06:47:15;;;;;;;16.23;11.93;;;14.70;99.90;;;;;;5014636;28;20163;-85
2023/05/12 06:49:41;;;;;;;12.93;10.40;;;14.90;99.90;;;;;;5014488;28;20029;-84
2023/05/12 06:52:07;;;;;;;12.10;9.77;;;15.00;99.90;;;;;;5016382;28;20028;-85
2023/05/12 06:54:33;;;;;;;10.45;8.70;;;15.20;99.90;;;;;;5030711;28;20151;-84
2023/05/12 06:56:59;;;;;;;10.95;8.38;;;15.30;99.90;;;;;;5011959;28;20040;-84
2023/05/12 06:59:25;;;;;;;9.90;7.47;;;15.30;99.90;;;;;;5044541;28;20179;-86
2023/05/12 07:01:50;;;;;;;12.85;9.18;;;15.30;99.90;;;;;;5044074;28;20050;-84
2023/05/12 07:04:16;;;;;;;11.32;8.80;;;15.50;99.90;;;;;;5028362;28;20040;-85
2023/05/12 07:06:42;;;;;;;11.02;8.73;;;15.50;99.90;;;;;;5047508;28;20048;-87
2023/05/12 07:09:07;;;;;;;12.00;9.43;;;15.50;99.90;;;;;;5026969;28;20096;-85
2023/05/12 07:11:33;;;;;;;10.88;7.53;;;15.50;99.90;;;;;;5027203;28;20075;-88
2023/05/12 07:13:59;;;;;;;9.60;7.82;;;15.60;99.90;;;;;;5004406;28;20049;-84
2023/05/12 07:16:24;;;;;;;8.73;7.53;;;15.60;99.90;;;;;;5009352;28;20038;-86
2023/05/12 07:18:50;;;;;;;9.40;8.15;;;15.70;99.90;;;;;;5020824;28;20112;-85
2023/05/12 07:21:16;;;;;;;9.70;7.78;;;15.80;99.90;;;;;;5003819;28;20340;-86
2023/05/12 07:23:42;;;;;;;7.93;6.35;;;16.00;99.90;;;;;;5006178;28;20044;-86
2023/05/12 07:26:08;;;;;;;8.20;6.35;;;16.20;99.90;;;;;;4994331;28;20097;-84
2023/05/12 07:28:35;;;;;;;7.07;6.03;;;16.30;99.90;;;;;;4965700;28;20042;-84
2023/05/12 07:31:01;;;;;;;7.63;6.07;;;16.40;99.90;;;;;;4971653;28;20029;-86
2023/05/12 07:33:28;;;;;;;7.00;6.30;;;16.30;99.90;;;;;;4985431;28;20449;-87
2023/05/12 07:35:53;;;;;;;7.05;5.90;;;16.40;99.90;;;;;;4972475;28;20534;-86
2023/05/12 07:38:19;;;;;;;7.00;5.45;;;16.60;99.90;;;;;;4968777;28;20044;-87
2023/05/12 07:40:45;;;;;;;6.07;5.47;;;16.80;99.90;;;;;;4988528;28;20459;-86
2023/05/12 07:43:11;;;;;;;5.40;4.78;;;16.80;99.90;;;;;;4983080;28;20094;-85
2023/05/12 07:45:37;;;;;;;4.78;3.70;;;16.70;99.90;;;;;;4977558;28;20057;-86
2023/05/12 07:48:03;;;;;;;4.38;3.42;;;16.70;99.90;;;;;;5012164;28;20038;-85
2023/05/12 07:50:28;;;;;;;5.30;4.40;;;16.80;99.90;;;;;;4997126;28;20053;-84
2023/05/12 07:52:54;;;;;;;6.50;4.53;;;16.70;99.90;;;;;;5011202;28;20375;-84
2023/05/12 07:55:21;;;;;;;4.95;4.38;;;17.00;99.90;;;;;;4968198;28;20074;-89
2023/05/12 07:57:49;;;;;;;4.15;3.35;;;17.00;99.90;;;;;;5011398;28;20425;-87
2023/05/12 08:00:15;;;;;;;4.95;4.15;;;17.60;99.90;;;;;;4995870;28;20038;-84
2023/05/12 08:02:41;;;;;;;4.00;3.60;;;17.70;99.90;;;;;;4992759;28;20030;-84
2023/05/12 08:05:08;;;;;;;3.58;3.28;;;18.10;99.90;;;;;;4994492;28;20076;-85
2023/05/12 08:07:35;;;;;;;3.42;2.95;;;18.30;99.90;;;;;;5008334;28;20082;-84
2023/05/12 08:10:01;;;;;;;3.10;2.45;;;18.20;99.90;;;;;;5011711;28;20097;-84
2023/05/12 08:12:27;;;;;;;3.50;2.45;;;18.00;99.90;;;;;;5001141;28;20018;-84
2023/05/12 08:14:52;;;;;;;3.20;2.50;;;17.90;99.90;;;;;;4988664;28;20379;-84
2023/05/12 08:17:18;;;;;;;2.55;2.10;;;18.00;99.90;;;;;;5006174;28;20359;-84
2023/05/12 08:19:44;;;;;;;3.63;1.77;;;18.10;99.90;;;;;;5001985;28;20030;-83
2023/05/12 08:22:09;;;;;;;1.90;1.35;;;18.30;99.90;;;;;;4990584;28;20420;-89
2023/05/12 08:24:35;;;;;;;1.73;0.88;;;18.30;99.90;;;;;;4985582;28;20054;-85
2023/05/12 08:27:01;;;;;;;1.92;1.30;;;18.40;99.90;;;;;;5003405;28;20128;-84
2023/05/12 08:29:26;;;;;;;2.03;1.13;;;18.30;99.90;;;;;;5002091;28;20037;-84
2023/05/12 08:31:52;;;;;;;1.23;0.70;;;18.00;99.90;;;;;;5004726;28;20041;-84
2023/05/12 08:34:18;;;;;;;1.33;0.60;;;18.10;99.90;;;;;;4986888;28;20391;-85
2023/05/12 08:36:43;;;;;;;1.23;0.70;;;18.00;99.90;;;;;;5019773;28;20131;-85
2023/05/12 08:39:10;;;;;;;1.50;0.70;;;17.80;99.90;;;;;;5004446;28;20490;-83
2023/05/12 08:41:47;;;;;;;1.10;0.60;;;17.90;99.90;;;;;;5005900;28;20032;-85
2023/05/12 08:44:14;;;;;;;1.50;0.70;;;17.90;99.90;;;;;;5004631;28;20121;-85
2023/05/12 08:46:41;;;;;;;1.17;0.68;;;17.90;99.90;;;;;;5002768;28;20041;-84
2023/05/12 08:49:11;;;;;;;1.00;0.50;;;17.90;99.90;;;;;;5005132;28;20022;-85
2023/05/12 08:51:39;;;;;;;1.15;0.50;;;18.10;99.90;;;;;;5020476;28;20030;-85
2023/05/12 08:54:08;;;;;;;0.95;0.50;;;18.20;99.90;;;;;;5003622;28;20030;-85
2023/05/12 08:56:34;;;;;;;2.97;0.45;;;18.40;99.90;;;;;;5013981;28;20040;-85
2023/05/12 08:59:02;;;;;;;1.00;0.40;;;18.40;99.90;;;;;;5017414;28;20034;-85
2023/05/12 09:01:29;;;;;;;0.90;0.40;;;18.40;99.90;;;;;;4983755;28;20034;-84
2023/05/12 09:03:55;;;;;;;0.82;0.43;;;18.30;99.90;;;;;;5006468;28;20038;-83
2023/05/12 09:06:21;;;;;;;0.93;0.45;;;18.30;99.90;;;;;;4990955;28;20252;-85
2023/05/12 09:08:47;;;;;;;0.82;0.40;;;18.20;99.90;;;;;;5020783;28;20455;-84
2023/05/12 09:11:13;;;;;;;1.30;0.40;;;18.30;99.90;;;;;;5002600;28;20040;-84
2023/05/12 09:14:01;;;;;;;0.85;0.38;;;18.40;99.90;;;;;;5001315;28;20034;-83
2023/05/12 09:16:30;;;;;;;0.77;0.40;;;18.50;99.90;;;;;;4989369;28;20041;-84
2023/05/12 09:18:58;;;;;;;0.85;0.30;;;18.60;99.90;;;;;;5006947;28;20088;-83
2023/05/12 09:21:25;;;;;;;0.85;0.40;;;18.50;99.90;;;;;;5015646;28;20030;-83
2023/05/12 09:23:51;;;;;;;0.68;0.40;;;18.40;99.90;;;;;;5001352;28;20356;-83
2023/05/12 09:26:17;;;;;;;0.70;0.40;;;18.20;99.90;;;;;;5015435;28;20040;-84
2023/05/12 09:28:43;;;;;;;0.90;0.40;;;18.50;99.90;;;;;;5002206;28;20037;-85
2023/05/12 09:31:23;;;;;;;0.68;0.30;;;18.60;99.90;;;;;;5008040;28;20045;-84
2023/05/12 09:33:50;;;;;;;0.90;0.40;;;18.50;99.90;;;;;;5003266;28;20030;-83
2023/05/12 09:36:21;;;;;;;0.55;0.30;;;18.60;99.90;;;;;;5002191;28;20082;-85
2023/05/12 09:38:57;;;;;;;0.57;0.30;;;18.50;99.90;;;;;;5021563;28;20236;-84
2023/05/12 09:41:22;;;;;;;1.25;0.30;;;18.60;99.90;;;;;;4988163;28;20570;-86
2023/05/12 09:43:52;;;;;;;0.50;0.30;;;18.50;99.90;;;;;;5002602;28;20113;-86
2023/05/12 09:46:17;;;;;;;0.70;0.30;;;18.60;99.90;;;;;;5005425;28;20434;-85
2023/05/12 09:48:46;;;;;;;0.95;0.30;;;18.50;99.90;;;;;;4985659;28;20034;-85
2023/05/12 09:51:16;;;;;;;0.63;0.30;;;18.50;99.90;;;;;;5005192;28;20053;-84
2023/05/12 09:53:43;;;;;;;;;;;18.50;99.90;;;;;;5017848;28;20505;-85
2023/05/12 09:56:11;;;;;;;0.77;0.30;;;18.40;99.90;;;;;;5013717;28;19910;-84
2023/05/12 09:58:46;;;;;;;0.70;0.30;;;18.30;99.90;;;;;;5002131;28;20030;-85
2023/05/12 10:01:17;;;;;;;0.50;0.20;;;18.50;99.90;;;;;;4987814;28;20108;-85
2023/05/12 10:03:46;;;;;;;0.50;0.30;;;18.60;99.90;;;;;;5001580;28;20080;-84
2023/05/12 10:06:14;;;;;;;;;;;18.50;99.90;;;;;;5005942;28;20117;-83
2023/05/12 10:08:48;;;;;;;1.48;0.30;;;18.40;99.90;;;;;;5005357;28;19909;-83
2023/05/12 10:11:15;;;;;;;0.88;0.38;;;18.60;99.90;;;;;;5007100;28;20030;-84
2023/05/12 10:13:41;;;;;;;0.60;0.30;;;18.70;99.90;;;;;;5007894;28;20065;-85
2023/05/12 10:16:08;;;;;;;1.73;0.30;;;18.90;99.90;;;;;;5008900;28;20034;-84
2023/05/12 10:18:35;;;;;;;1.00;0.40;;;18.90;99.90;;;;;;5016972;28;20038;-85
2023/05/12 10:21:02;;;;;;;1.70;0.43;;;18.80;99.90;;;;;;5018437;28;20034;-84
2023/05/12 10:23:28;;;;;;;0.63;0.30;;;18.90;99.90;;;;;;5005669;28;20034;-85
2023/05/12 10:26:00;;;;;;;1.55;0.40;;;18.90;99.90;;;;;;5011038;28;20066;-84
2023/05/12 10:28:27;;;;;;;0.60;0.30;;;18.90;99.90;;;;;;5006374;28;20546;-84
2023/05/12 10:30:53;;;;;;;0.55;0.30;;;19.00;99.90;;;;;;5001405;28;20481;-85
2023/05/12 10:33:20;;;;;;;1.23;0.35;;;18.90;99.90;;;;;;5020926;28;20022;-83
2023/05/12 10:35:45;;;;;;;0.90;0.40;;;19.00;99.90;;;;;;5010361;28;20040;-85
2023/05/12 10:38:15;;;;;;;2.03;0.30;;;19.20;99.90;;;;;;4991718;28;20113;-84
2023/05/12 10:40:57;;;;;;;0.80;0.38;;;19.60;99.90;;;;;;4988064;28;20471;-84
2023/05/12 10:43:24;;;;;;;0.50;0.28;;;19.90;99.90;;;;;;5002741;28;20030;-86
2023/05/12 10:46:16;;;;;;;0.80;0.32;;;20.30;99.90;;;;;;5010539;28;20034;-84
2023/05/12 10:48:53;;;;;;;0.70;0.40;;;20.50;99.90;;;;;;5000716;28;20112;-85
2023/05/12 10:51:21;;;;;;;0.70;0.32;;;20.60;99.90;;;;;;5002276;28;20036;-88
2023/05/12 10:53:51;;;;;;;1.40;0.30;;;21.00;99.90;;;;;;5000602;28;20060;-87
2023/05/12 10:56:25;;;;;;;0.63;0.22;;;21.00;99.90;;;;;;4989004;28;20026;-89
2023/05/12 10:59:21;;;;;;;0.57;0.30;;;21.30;99.90;;;;;;5014695;28;20033;-89
2023/05/12 11:02:10;;;;;;;0.55;0.30;;;21.40;99.90;;;;;;4994135;28;20045;-85
2023/05/12 11:04:39;;;;;;;;;;;20.80;99.90;;;;;;5002301;28;20033;-89
2023/05/12 11:07:09;;;;;;;0.93;0.30;;;21.00;99.90;;;;;;5017905;28;19921;-85
2023/05/12 11:09:37;;;;;;;0.88;0.30;;;20.90;99.90;;;;;;5003545;28;20113;-85
2023/05/12 11:12:06;;;;;;;1.65;0.40;;;20.70;99.90;;;;;;5004087;28;20093;-85
2023/05/12 11:14:36;;;;;;;0.47;0.30;;;20.80;99.90;;;;;;4994257;28;20066;-84
2023/05/12 11:17:02;;;;;;;0.60;0.30;;;21.00;99.90;;;;;;4995579;28;20493;-84
2023/05/12 11:19:29;;;;;;;0.70;0.30;;;21.10;99.90;;;;;;4995639;28;20022;-84
2023/05/12 11:21:54;;;;;;;0.63;0.40;;;21.40;99.90;;;;;;4982271;28;20113;-84
2023/05/12 11:24:20;;;;;;;1.10;0.40;;;21.50;99.90;;;;;;4999514;28;20478;-84
2023/05/12 11:26:50;;;;;;;0.65;0.30;;;21.30;99.90;;;;;;4981197;28;20341;-86
2023/05/12 11:29:20;;;;;;;1.05;0.40;;;21.40;99.90;;;;;;4982218;28;20027;-85
2023/05/12 11:31:50;;;;;;;1.77;0.30;;;21.80;99.90;;;;;;4980016;28;20470;-85
2023/05/12 11:34:21;;;;;;;0.73;0.30;;;22.30;99.90;;;;;;4978164;28;20019;-84
2023/05/12 11:36:47;;;;;;;2.25;0.30;;;22.20;99.90;;;;;;4986777;28;20483;-85
2023/05/12 11:39:23;;;;;;;1.42;0.30;;;22.30;99.90;;;;;;4990571;28;20585;-85
2023/05/12 11:41:50;;;;;;;1.83;0.30;;;22.20;99.90;;;;;;4985029;28;20440;-85
2023/05/12 11:44:22;;;;;;;1.80;0.30;;;22.80;99.90;;;;;;4994305;28;20034;-84
2023/05/12 11:47:02;;;;;;;1.15;0.30;;;22.60;99.90;;;;;;4965370;28;20093;-84
2023/05/12 11:49:30;;;;;;;0.77;0.30;;;23.30;99.90;;;;;;5013217;28;20027;-84
2023/05/12 11:51:58;;;;;;;0.73;0.70;;;23.40;99.90;;;;;;4992791;28;20058;-84
2023/05/12 11:54:26;;;;;;;0.73;0.40;;;22.80;99.90;;;;;;5013657;28;20069;-84
2023/05/12 11:56:53;;;;;;;0.77;0.40;;;22.60;99.90;;;;;;4978289;28;20030;-85
2023/05/12 11:59:55;;;;;;;0.60;0.30;;;22.40;99.90;;;;;;4983557;28;20463;-85
2023/05/12 12:02:21;;;;;;;0.75;0.30;;;22.40;99.90;;;;;;4998377;28;20034;-85
2023/05/12 12:04:47;;;;;;;0.70;0.30;;;22.50;99.90;;;;;;4988845;28;20027;-86
2023/05/12 12:07:12;;;;;;;0.95;0.40;;;22.50;99.90;;;;;;4996691;28;20042;-87
2023/05/12 12:09:39;;;;;;;0.80;0.30;;;22.50;99.90;;;;;;4996075;28;20077;-86
2023/05/12 12:12:08;;;;;;;0.90;0.30;;;22.70;99.90;;;;;;4975537;28;20027;-87
2023/05/12 12:14:36;;;;;;;1.10;0.32;;;22.40;99.90;;;;;;5025711;28;20042;-87
2023/05/12 12:17:03;;;;;;;0.73;0.38;;;22.30;99.90;;;;;;5000620;28;20030;-86
2023/05/12 12:19:29;;;;;;;0.60;0.30;;;22.40;99.90;;;;;;5015189;28;20034;-86
2023/05/12 12:21:56;;;;;;;0.80;0.30;;;22.80;99.90;;;;;;4997991;28;20096;-84
2023/05/12 12:24:23;;;;;;;1.33;0.50;;;22.40;99.90;;;;;;4996645;28;20398;-87
2023/05/12 12:26:49;;;;;;;0.98;0.25;;;22.30;99.90;;;;;;5014012;28;20124;-88
2023/05/12 12:29:15;;;;;;;0.80;0.30;;;22.40;99.90;;;;;;4999464;28;20026;-85
2023/05/12 12:31:41;;;;;;;0.90;0.40;;;22.60;99.90;;;;;;5004876;28;20061;-85
2023/05/12 12:34:07;;;;;;;0.60;0.40;;;22.00;99.90;;;;;;5014177;28;20061;-85
2023/05/12 12:36:33;;;;;;;1.20;0.30;;;22.10;99.90;;;;;;5020600;28;20105;-86
2023/05/12 12:38:59;;;;;;;0.90;0.38;;;22.40;99.90;;;;;;5008792;28;20036;-85
2023/05/12 12:41:25;;;;;;;1.67;0.30;;;22.30;99.90;;;;;;5005343;28;20037;-86